Alenquer, Brazil
Current Conditions -  °F | °C
As of 10:00 AM on Tuesday 21 Oct 2014 (Local Time) from SBSN Reporting Station
Broken Clouds Broken Clouds  
Wind Chill: 77°   Ceiling: 10000
Heat Index: 78°   Visibility: 6mi
Dew Point: 75°   Wind: 8mph
Humidity: 94%   Direction: 190°S
Pressure: 29.94"   Gusts: NA
Location:  1.94°S, 54.79°W
Report Text: SBSN 211400Z 19007KT 9999 SCT017 BKN100 25/24 Q1014
Loading
Personal Weather Stations






























Interactive Weather Map
Tropical Storm Tracking
New forecast layout! Learn more

10-Day Weather Forecast

Advertisements
Track Severe Weather on mobile